createdAt,value
2018-10-09T00:01:02.606Z,13.60
2018-10-09T00:03:31.868Z,13.58
2018-10-09T00:06:02.249Z,13.55
2018-10-09T00:08:31.324Z,13.52
2018-10-09T00:11:00.422Z,13.47
2018-10-09T00:13:29.493Z,13.43
2018-10-09T00:15:58.542Z,13.37
2018-10-09T00:18:28.949Z,13.34
2018-10-09T00:20:57.963Z,13.30
2018-10-09T00:23:27.075Z,13.25
2018-10-09T00:25:56.174Z,13.21
2018-10-09T00:28:25.265Z,13.16
2018-10-09T00:30:54.333Z,13.13
2018-10-09T00:33:23.352Z,13.09
2018-10-09T00:35:52.444Z,13.04
2018-10-09T00:38:22.026Z,13.01
2018-10-09T00:40:51.122Z,12.98
2018-10-09T00:43:20.158Z,12.96
2018-10-09T00:45:49.244Z,12.93
2018-10-09T00:48:18.313Z,12.91
2018-10-09T00:50:47.441Z,12.88
2018-10-09T00:53:16.510Z,12.86
2018-10-09T00:55:45.638Z,12.86
2018-10-09T00:58:14.755Z,12.85
2018-10-09T01:00:43.779Z,12.84
2018-10-09T01:03:12.820Z,12.83
2018-10-09T01:05:41.991Z,12.84
2018-10-09T01:08:11.117Z,12.83
2018-10-09T01:10:40.211Z,12.82
2018-10-09T01:13:09.313Z,12.80
2018-10-09T01:15:38.437Z,12.79
2018-10-09T01:18:07.480Z,12.75
2018-10-09T01:20:37.314Z,12.73
2018-10-09T01:23:07.204Z,12.73
2018-10-09T01:25:36.998Z,12.71
2018-10-09T01:28:06.044Z,12.70
2018-10-09T01:30:35.460Z,12.71
2018-10-09T01:33:04.822Z,12.75
2018-10-09T01:35:34.024Z,12.80
2018-10-09T01:38:03.176Z,12.87
2018-10-09T01:40:32.242Z,12.91
2018-10-09T01:43:01.243Z,12.94
2018-10-09T01:45:30.284Z,12.97
2018-10-09T01:47:59.339Z,12.98
2018-10-09T01:50:28.400Z,12.97
2018-10-09T01:52:57.422Z,12.97
2018-10-09T01:55:26.513Z,12.97
2018-10-09T01:57:55.687Z,12.97
2018-10-09T02:00:24.790Z,12.94
2018-10-09T02:02:53.813Z,12.93
2018-10-09T02:05:22.900Z,12.93
2018-10-09T02:07:52.520Z,12.90
2018-10-09T02:10:21.626Z,12.88
2018-10-09T02:12:51.295Z,12.87
2018-10-09T02:15:21.185Z,12.85
2018-10-09T02:17:50.339Z,12.79
2018-10-09T02:20:19.476Z,12.75
2018-10-09T02:22:48.493Z,12.70
2018-10-09T02:25:17.685Z,12.66
2018-10-09T02:27:46.719Z,12.62
2018-10-09T02:30:15.831Z,12.58
2018-10-09T02:32:44.889Z,12.52
2018-10-09T02:35:13.913Z,12.47
2018-10-09T02:37:42.979Z,12.43
2018-10-09T02:40:11.980Z,12.41
2018-10-09T02:42:41.041Z,12.40
2018-10-09T02:45:10.097Z,12.38
2018-10-09T02:47:39.098Z,12.36
2018-10-09T02:50:08.346Z,12.31
2018-10-09T02:52:37.545Z,12.27
2018-10-09T02:55:06.763Z,12.24
2018-10-09T02:57:35.834Z,12.20
2018-10-09T03:00:04.977Z,12.18
2018-10-09T03:02:33.975Z,12.14
2018-10-09T03:05:03.330Z,12.14
2018-10-09T03:07:32.575Z,12.12
2018-10-09T03:10:01.683Z,12.11
2018-10-09T03:12:30.732Z,12.13
2018-10-09T03:15:00.623Z,12.11
2018-10-09T03:17:29.711Z,12.10
2018-10-09T03:19:58.754Z,12.08
2018-10-09T03:22:27.771Z,12.05
2018-10-09T03:24:56.852Z,12.06
2018-10-09T03:27:25.993Z,12.04
2018-10-09T03:29:55.040Z,12.04
2018-10-09T03:32:24.243Z,12.01
2018-10-09T03:34:53.257Z,12.01
2018-10-09T03:37:22.399Z,11.97
2018-10-09T03:39:51.877Z,11.93
2018-10-09T03:42:20.911Z,11.87
2018-10-09T03:44:50.082Z,11.80
2018-10-09T03:47:19.226Z,11.76
2018-10-09T03:49:48.260Z,11.74
2018-10-09T03:52:17.343Z,11.73
2018-10-09T03:54:46.482Z,11.70
2018-10-09T03:57:15.841Z,11.69
2018-10-09T03:59:44.972Z,11.64
2018-10-09T04:02:14.038Z,11.60
2018-10-09T04:04:43.210Z,11.57
2018-10-09T04:07:12.243Z,11.55
2018-10-09T04:09:42.641Z,11.54
2018-10-09T04:12:11.720Z,11.53
2018-10-09T04:14:40.755Z,11.53
2018-10-09T04:17:09.824Z,11.55
2018-10-09T04:19:38.864Z,11.54
2018-10-09T04:22:08.604Z,11.51
2018-10-09T04:24:37.728Z,11.50
2018-10-09T04:27:06.810Z,11.46
2018-10-09T04:29:35.862Z,11.43
2018-10-09T04:32:05.057Z,11.40
2018-10-09T04:34:34.282Z,11.36
2018-10-09T04:37:04.309Z,11.35
2018-10-09T04:39:33.420Z,11.31
2018-10-09T04:42:02.500Z,11.26
2018-10-09T04:44:31.530Z,11.26
2018-10-09T04:47:00.598Z,11.25
2018-10-09T04:49:29.673Z,11.27
2018-10-09T04:51:59.639Z,11.27
2018-10-09T04:54:29.028Z,11.27
2018-10-09T04:56:58.055Z,11.25
2018-10-09T04:59:27.140Z,11.22
2018-10-09T05:01:56.260Z,11.20
2018-10-09T05:04:25.297Z,11.16
2018-10-09T05:06:54.421Z,11.12
2018-10-09T05:09:23.494Z,11.13
2018-10-09T05:11:52.676Z,11.14
2018-10-09T05:14:21.801Z,11.17
2018-10-09T05:16:50.813Z,11.16
2018-10-09T05:19:19.886Z,11.14
2018-10-09T05:21:49.517Z,11.10
2018-10-09T05:24:18.546Z,11.07
2018-10-09T05:26:47.841Z,11.04
2018-10-09T05:29:16.877Z,11.03
2018-10-09T05:31:46.825Z,11.04
2018-10-09T05:34:15.920Z,11.09
2018-10-09T05:36:45.018Z,11.13
2018-10-09T05:39:14.002Z,11.20
2018-10-09T05:41:43.116Z,11.25
2018-10-09T05:44:23.814Z,11.30
2018-10-09T05:46:52.914Z,11.30
2018-10-09T05:49:22.385Z,11.32
2018-10-09T05:51:51.726Z,11.35
2018-10-09T05:54:20.810Z,11.35
2018-10-09T05:56:49.964Z,11.36
2018-10-09T05:59:19.004Z,11.36
2018-10-09T06:01:48.785Z,11.35
2018-10-09T06:04:17.885Z,11.37
2018-10-09T06:06:46.973Z,11.39
2018-10-09T06:09:16.133Z,11.45
2018-10-09T06:11:45.268Z,11.47
2018-10-09T06:14:14.381Z,11.46
2018-10-09T06:16:43.498Z,11.50
2018-10-09T06:19:12.808Z,11.55
2018-10-09T06:21:42.488Z,11.60
2018-10-09T06:24:11.919Z,11.64
2018-10-09T06:26:41.416Z,11.67
2018-10-09T06:29:10.522Z,11.67
2018-10-09T06:31:39.764Z,11.63
2018-10-09T06:34:11.045Z,11.59
2018-10-09T06:36:41.107Z,11.56
2018-10-09T06:39:11.573Z,11.55
2018-10-09T06:41:42.229Z,11.55
2018-10-09T06:44:11.656Z,11.54
2018-10-09T06:46:40.757Z,11.56
2018-10-09T06:49:11.003Z,11.56
2018-10-09T06:51:40.096Z,11.57
2018-10-09T06:54:09.308Z,11.61
2018-10-09T06:56:42.793Z,11.62
2018-10-09T06:59:11.974Z,11.60
2018-10-09T07:01:42.034Z,11.58
2018-10-09T07:04:11.193Z,11.59
2018-10-09T07:06:40.469Z,11.59
2018-10-09T07:09:11.752Z,11.62
2018-10-09T07:11:40.960Z,11.67
2018-10-09T07:14:11.300Z,11.70
2018-10-09T07:16:40.588Z,11.77
2018-10-09T07:19:13.267Z,12.17
2018-10-09T07:21:43.326Z,12.82
2018-10-09T07:24:12.873Z,13.46
2018-10-09T07:26:42.296Z,14.00
2018-10-09T07:29:11.391Z,14.53
2018-10-09T07:31:42.332Z,15.00
2018-10-09T07:34:11.586Z,15.42
2018-10-09T07:36:40.666Z,15.78
2018-10-09T07:39:12.838Z,15.87
2018-10-09T07:41:44.958Z,15.63
2018-10-09T07:44:14.117Z,15.27
2018-10-09T07:46:43.329Z,15.01
2018-10-09T07:49:12.565Z,14.72
2018-10-09T07:51:41.621Z,14.46
2018-10-09T07:54:10.955Z,14.28
2018-10-09T07:56:41.282Z,14.14
2018-10-09T07:59:10.777Z,14.01
2018-10-09T08:01:44.258Z,13.89
2018-10-09T08:04:13.630Z,13.78
2018-10-09T08:06:42.964Z,13.69
2018-10-09T08:09:12.981Z,13.60
2018-10-09T08:11:43.232Z,13.50
2018-10-09T08:14:16.582Z,13.41
2018-10-09T08:16:45.625Z,13.34
2018-10-09T08:19:14.776Z,13.30
2018-10-09T08:21:44.684Z,13.28
2018-10-09T08:24:14.010Z,13.26
2018-10-09T08:26:43.235Z,13.25
2018-10-09T08:29:12.326Z,13.30
2018-10-09T08:31:41.401Z,13.34
2018-10-09T08:36:43.907Z,13.44
2018-10-09T08:39:13.000Z,13.47
2018-10-09T08:41:42.047Z,13.48
2018-10-09T08:46:44.550Z,13.55
2018-10-09T08:49:16.808Z,13.60
2018-10-09T08:51:46.657Z,13.67
2018-10-09T08:54:16.801Z,13.71
2018-10-09T08:56:45.865Z,13.77
2018-10-09T08:59:15.016Z,13.79
2018-10-09T09:01:44.110Z,13.83
2018-10-09T09:04:13.321Z,13.86
2018-10-09T09:06:42.502Z,13.90
2018-10-09T09:09:13.819Z,13.94
2018-10-09T09:11:42.975Z,13.98
2018-10-09T09:14:12.057Z,14.03
2018-10-09T09:16:41.195Z,14.06
2018-10-09T09:19:10.799Z,14.10
2018-10-09T09:21:41.086Z,14.14
2018-10-09T09:24:11.484Z,14.19
2018-10-09T09:26:40.743Z,14.23
2018-10-09T09:29:10.111Z,14.28
2018-10-09T09:31:39.327Z,14.32
2018-10-09T09:34:08.442Z,14.35
2018-10-09T09:36:38.531Z,14.39
2018-10-09T09:39:09.519Z,14.45
2018-10-09T09:41:39.074Z,14.50
2018-10-09T09:44:08.785Z,14.53
2018-10-09T09:46:38.443Z,14.56
2018-10-09T09:49:08.068Z,14.63
2018-10-09T09:51:37.188Z,14.65
2018-10-09T09:54:10.953Z,14.68
2018-10-09T09:56:41.048Z,14.75
2018-10-09T09:59:12.075Z,14.81
2018-10-09T10:01:41.765Z,14.87
2018-10-09T10:04:12.195Z,14.88
2018-10-09T10:06:41.625Z,14.94
2018-10-09T10:09:12.400Z,14.98
2018-10-09T10:11:42.407Z,14.98
2018-10-09T10:14:11.688Z,15.06
2018-10-09T10:16:40.773Z,15.13
2018-10-09T10:19:11.052Z,15.18
2018-10-09T10:21:41.336Z,15.24
2018-10-09T10:24:10.651Z,15.32
2018-10-09T10:26:39.822Z,15.41
2018-10-09T10:29:09.145Z,15.48
2018-10-09T10:31:38.410Z,15.55
2018-10-09T10:34:07.658Z,15.67
2018-10-09T10:36:36.807Z,15.76
2018-10-09T10:39:09.574Z,15.83
2018-10-09T10:41:40.859Z,15.86
2018-10-09T10:44:10.422Z,15.97
2018-10-09T10:46:40.681Z,16.10
2018-10-09T10:49:12.068Z,16.18
2018-10-09T10:51:41.404Z,16.19
2018-10-09T10:54:10.541Z,16.19
2018-10-09T10:56:39.718Z,16.18
2018-10-09T10:59:09.043Z,16.32
2018-10-09T11:01:42.338Z,16.41
2018-10-09T11:04:14.884Z,16.46
2018-10-09T11:06:44.064Z,16.49
2018-10-09T11:09:14.249Z,16.53
2018-10-09T11:11:43.476Z,16.56
2018-10-09T11:14:12.734Z,16.58
2018-10-09T11:16:41.915Z,16.57
2018-10-09T11:19:11.141Z,16.48
2018-10-09T11:21:40.331Z,16.43
2018-10-09T11:24:09.638Z,16.35
2018-10-09T11:26:38.845Z,16.26
2018-10-09T11:29:08.009Z,16.25
2018-10-09T11:31:37.130Z,16.33
2018-10-09T11:34:06.340Z,16.40
2018-10-09T11:36:35.612Z,16.50
2018-10-09T11:39:05.566Z,16.55
2018-10-09T11:41:34.821Z,16.55
2018-10-09T11:44:04.483Z,16.51
2018-10-09T11:46:34.276Z,16.47
2018-10-09T11:49:03.470Z,16.41
2018-10-09T11:51:32.681Z,16.35
2018-10-09T11:54:01.916Z,16.33
2018-10-09T11:56:32.022Z,16.31
2018-10-09T11:59:01.282Z,16.25
2018-10-09T12:01:30.425Z,16.24
2018-10-09T12:04:00.632Z,16.18
2018-10-09T12:06:29.899Z,16.14
2018-10-09T12:08:59.345Z,16.16
2018-10-09T12:11:28.668Z,16.16
2018-10-09T12:13:57.821Z,16.14
2018-10-09T12:16:27.676Z,16.10
2018-10-09T12:18:56.853Z,16.16
2018-10-09T12:21:26.198Z,16.13
2018-10-09T12:23:55.547Z,16.18
2018-10-09T12:26:24.728Z,16.19
2018-10-09T12:28:54.973Z,16.20
2018-10-09T12:31:24.229Z,16.20
2018-10-09T12:33:54.087Z,16.18
2018-10-09T12:36:23.427Z,16.17
2018-10-09T12:38:52.675Z,16.18
2018-10-09T12:41:22.372Z,16.17
2018-10-09T12:43:51.597Z,16.14
2018-10-09T12:46:20.769Z,16.14
2018-10-09T12:48:50.004Z,16.14
2018-10-09T12:51:19.147Z,16.15
2018-10-09T12:53:48.291Z,16.15
2018-10-09T12:56:17.496Z,16.13
2018-10-09T12:58:46.591Z,16.16
2018-10-09T13:01:15.827Z,16.16
2018-10-09T13:03:46.004Z,16.16
2018-10-09T13:06:15.832Z,16.14
2018-10-09T13:08:45.018Z,16.14
2018-10-09T13:11:14.218Z,16.14
2018-10-09T13:13:43.900Z,16.13
2018-10-09T13:16:13.037Z,16.13
2018-10-09T13:18:45.133Z,16.14
2018-10-09T13:21:14.488Z,16.16
2018-10-09T13:23:43.878Z,16.18
2018-10-09T13:26:12.937Z,16.20
2018-10-09T13:28:42.095Z,16.23
2018-10-09T13:31:11.275Z,16.25
2018-10-09T13:33:40.392Z,16.27
2018-10-09T13:36:09.678Z,16.27
2018-10-09T13:38:39.719Z,16.25
2018-10-09T13:41:09.028Z,16.31
2018-10-09T13:43:39.495Z,16.34
2018-10-09T13:46:09.541Z,16.35
2018-10-09T13:48:38.856Z,16.38
2018-10-09T13:51:08.335Z,16.35
2018-10-09T13:53:38.194Z,16.37
2018-10-09T13:56:09.791Z,16.36
2018-10-09T13:58:40.040Z,16.35
2018-10-09T14:01:21.114Z,16.36
2018-10-09T14:03:50.444Z,16.37
2018-10-09T14:06:19.773Z,16.37
2018-10-09T14:08:48.966Z,16.40
2018-10-09T14:11:18.321Z,16.41
2018-10-09T14:13:47.659Z,16.41
2018-10-09T14:16:16.916Z,16.42
2018-10-09T14:18:46.011Z,16.44
2018-10-09T14:21:15.071Z,16.47
2018-10-09T14:23:44.511Z,16.48
2018-10-09T14:26:15.932Z,16.49
2018-10-09T14:28:47.008Z,16.50
2018-10-09T14:31:16.200Z,16.49
2018-10-09T14:33:46.332Z,16.48
2018-10-09T14:36:20.085Z,16.48
2018-10-09T14:38:49.555Z,16.48
2018-10-09T14:41:18.877Z,16.47
2018-10-09T14:43:48.548Z,16.44
2018-10-09T14:46:17.875Z,16.47
2018-10-09T14:48:47.362Z,16.47
2018-10-09T14:51:16.616Z,16.47
2018-10-09T14:53:46.682Z,16.48
2018-10-09T14:56:16.098Z,16.49
2018-10-09T14:58:45.688Z,16.52
2018-10-09T15:01:18.056Z,16.51
2018-10-09T15:03:48.074Z,16.51
2018-10-09T15:06:17.534Z,16.49
2018-10-09T15:08:46.681Z,16.49
2018-10-09T15:11:16.447Z,16.49
2018-10-09T15:13:45.890Z,16.51
2018-10-09T15:16:15.844Z,16.49
2018-10-09T15:18:44.996Z,16.51
2018-10-09T15:21:14.311Z,16.52
2018-10-09T15:23:43.570Z,16.51
2018-10-09T15:26:12.845Z,16.49
2018-10-09T15:28:42.926Z,16.49
2018-10-09T15:31:12.109Z,16.48
2018-10-09T15:33:41.184Z,16.48
2018-10-09T15:36:10.619Z,16.46
2018-10-09T15:38:39.869Z,16.45
2018-10-09T15:41:09.128Z,16.42
2018-10-09T15:43:38.605Z,16.41
2018-10-09T15:46:08.494Z,16.39
2018-10-09T15:48:37.865Z,16.39
2018-10-09T15:51:07.917Z,16.35
2018-10-09T15:53:37.067Z,16.33
2018-10-09T15:56:06.240Z,16.31
2018-10-09T15:58:35.332Z,16.28
2018-10-09T16:01:04.530Z,16.26
2018-10-09T16:03:34.664Z,16.25
2018-10-09T16:06:05.622Z,16.22
2018-10-09T16:08:35.502Z,16.20
2018-10-09T16:11:04.793Z,16.19
2018-10-09T16:13:37.134Z,16.17
2018-10-09T16:16:06.391Z,16.16
2018-10-09T16:18:37.609Z,16.14
2018-10-09T16:21:07.045Z,16.10
2018-10-09T16:23:37.885Z,16.11
2018-10-09T16:26:07.295Z,16.08
2018-10-09T16:28:36.383Z,16.07
2018-10-09T16:31:05.675Z,16.06
2018-10-09T16:33:35.007Z,16.03
2018-10-09T16:36:05.083Z,16.01
2018-10-09T16:38:34.411Z,15.98
2018-10-09T16:41:03.782Z,15.96
2018-10-09T16:43:33.146Z,15.92
2018-10-09T16:46:02.511Z,15.89
2018-10-09T16:48:31.607Z,15.86
2018-10-09T16:51:00.711Z,15.84
2018-10-09T16:53:30.291Z,15.80
2018-10-09T16:55:59.438Z,15.77
2018-10-09T16:58:28.631Z,15.72
2018-10-09T17:00:57.652Z,15.66
2018-10-09T17:03:26.797Z,15.61
2018-10-09T17:05:55.915Z,15.58
2018-10-09T17:08:25.338Z,15.52
2018-10-09T17:10:54.708Z,15.44
2018-10-09T17:13:23.823Z,15.43
2018-10-09T17:15:53.367Z,15.37
2018-10-09T17:18:22.695Z,15.30
2018-10-09T17:20:51.984Z,15.23
2018-10-09T17:23:21.135Z,15.20
2018-10-09T17:25:50.190Z,15.19
2018-10-09T17:28:19.314Z,15.14
2018-10-09T17:30:48.527Z,15.08
2018-10-09T17:33:17.690Z,15.02
2018-10-09T17:35:47.640Z,14.96
2018-10-09T17:38:16.740Z,14.90
2018-10-09T17:40:47.677Z,14.85
2018-10-09T17:43:16.914Z,14.77
2018-10-09T17:45:46.042Z,14.73
2018-10-09T17:48:15.170Z,14.68
2018-10-09T17:50:44.440Z,14.58
2018-10-09T17:53:14.795Z,14.55
2018-10-09T17:55:44.565Z,14.48
2018-10-09T17:58:15.137Z,14.42
2018-10-09T18:00:44.374Z,14.35
2018-10-09T18:03:13.604Z,14.27
2018-10-09T18:05:42.717Z,14.17
2018-10-09T18:08:11.792Z,14.08
2018-10-09T18:10:41.542Z,13.98
2018-10-09T18:13:10.756Z,13.87
2018-10-09T18:15:39.918Z,13.80
2018-10-09T18:18:09.142Z,13.75
2018-10-09T18:20:39.094Z,13.71
2018-10-09T18:23:08.444Z,13.65
2018-10-09T18:25:39.105Z,13.58
2018-10-09T18:28:09.481Z,13.52
2018-10-09T18:30:38.596Z,13.48
2018-10-09T18:33:07.839Z,13.47
2018-10-09T18:35:37.075Z,13.41
2018-10-09T18:38:06.220Z,13.36
2018-10-09T18:40:35.354Z,13.31
2018-10-09T18:43:05.121Z,13.25
2018-10-09T18:45:36.338Z,13.21
2018-10-09T18:48:05.422Z,13.16
2018-10-09T18:50:34.526Z,13.13
2018-10-09T18:53:03.906Z,13.10
2018-10-09T18:55:33.040Z,13.07
2018-10-09T18:58:03.148Z,13.03
2018-10-09T19:00:32.550Z,12.99
2018-10-09T19:03:01.748Z,12.92
2018-10-09T19:05:31.986Z,12.84
2018-10-09T19:08:01.331Z,12.77
2018-10-09T19:10:31.231Z,12.74
2018-10-09T19:13:03.367Z,12.69
2018-10-09T19:15:32.671Z,12.63
2018-10-09T19:18:01.873Z,12.59
2018-10-09T19:20:31.106Z,12.55
2018-10-09T19:23:01.117Z,12.53
2018-10-09T19:25:30.323Z,12.49
2018-10-09T19:27:59.524Z,12.45
2018-10-09T19:30:28.741Z,12.42
2018-10-09T19:32:57.846Z,12.41
2018-10-09T19:35:28.519Z,12.38
2018-10-09T19:37:58.211Z,12.38
2018-10-09T19:40:27.377Z,12.39
2018-10-09T19:42:56.470Z,12.44
2018-10-09T19:45:25.637Z,12.53
2018-10-09T19:47:54.732Z,12.65
2018-10-09T19:50:23.856Z,12.78
2018-10-09T19:52:52.958Z,12.87
2018-10-09T19:55:22.155Z,12.99
2018-10-09T19:57:51.223Z,13.07
2018-10-09T20:00:20.428Z,13.13
2018-10-09T20:02:49.499Z,13.18
2018-10-09T20:05:18.970Z,13.20
2018-10-09T20:07:48.145Z,13.22
2018-10-09T20:10:17.401Z,13.25
2018-10-09T20:12:47.112Z,13.26
2018-10-09T20:15:17.114Z,13.28
2018-10-09T20:17:46.496Z,13.27
2018-10-09T20:20:16.347Z,13.28
2018-10-09T20:22:45.985Z,13.29
2018-10-09T20:25:15.087Z,13.27
2018-10-09T20:27:44.986Z,13.28
2018-10-09T20:30:14.093Z,13.26
2018-10-09T20:32:43.186Z,13.28
2018-10-09T20:35:12.368Z,13.26
2018-10-09T20:37:44.415Z,13.25
2018-10-09T20:40:13.630Z,13.24
2018-10-09T20:42:42.892Z,13.24
2018-10-09T20:45:12.311Z,13.22
2018-10-09T20:47:44.588Z,13.21
2018-10-09T20:51:19.258Z,13.21
2018-10-09T20:53:48.979Z,13.20
2018-10-09T20:56:18.319Z,13.21
2018-10-09T20:58:47.526Z,13.21
2018-10-09T21:01:16.744Z,13.21
2018-10-09T21:03:45.919Z,13.23
2018-10-09T21:06:15.525Z,13.23
2018-10-09T21:08:44.650Z,13.22
2018-10-09T21:11:13.882Z,13.21
2018-10-09T21:13:43.734Z,13.21
2018-10-09T21:16:12.855Z,13.20
2018-10-09T21:18:42.024Z,13.20
2018-10-09T21:21:11.856Z,13.20
2018-10-09T21:23:41.061Z,13.21
2018-10-09T21:26:10.215Z,13.21
2018-10-09T21:28:39.389Z,13.22
2018-10-09T21:31:08.554Z,13.22
2018-10-09T21:33:37.712Z,13.23
2018-10-09T21:36:07.050Z,13.22
2018-10-09T21:38:36.253Z,13.23
2018-10-09T21:41:06.394Z,13.22
2018-10-09T21:43:35.567Z,13.22
2018-10-09T21:46:05.778Z,13.24
2018-10-09T21:48:34.848Z,13.22
2018-10-09T21:51:04.153Z,13.23
2018-10-09T21:53:33.371Z,13.24
2018-10-09T21:56:02.578Z,13.24
2018-10-09T21:58:31.751Z,13.23
2018-10-09T22:01:05.987Z,13.23
2018-10-09T22:03:35.736Z,13.23
2018-10-09T22:06:04.879Z,13.22
2018-10-09T22:08:34.009Z,13.22
2018-10-09T22:11:04.169Z,13.22
2018-10-09T22:13:33.496Z,13.22
2018-10-09T22:16:02.691Z,13.22
2018-10-09T22:18:31.864Z,13.23
2018-10-09T22:21:01.000Z,13.23
2018-10-09T22:23:30.167Z,13.24
2018-10-09T22:26:00.157Z,13.24
2018-10-09T22:28:29.345Z,13.25
2018-10-09T22:31:15.046Z,13.24
2018-10-09T22:33:59.661Z,13.26
2018-10-09T22:36:46.681Z,13.30
2018-10-09T22:39:31.472Z,13.34
2018-10-09T22:42:19.995Z,13.37
2018-10-09T22:45:05.662Z,13.40
2018-10-09T22:47:52.713Z,13.41
2018-10-09T22:50:40.486Z,13.44
2018-10-09T22:53:24.259Z,13.45
2018-10-09T22:56:11.151Z,13.45
2018-10-09T22:58:40.457Z,13.45
2018-10-09T23:01:29.725Z,13.44
2018-10-09T23:04:15.754Z,13.44
2018-10-09T23:07:04.805Z,13.41
2018-10-09T23:09:47.728Z,13.41
2018-10-09T23:12:32.999Z,13.40
2018-10-09T23:15:02.814Z,13.39
2018-10-09T23:17:49.156Z,13.37
2018-10-09T23:20:37.854Z,13.32
2018-10-09T23:23:07.340Z,13.31
2018-10-09T23:25:36.670Z,13.30
2018-10-09T23:28:05.726Z,13.27
2018-10-09T23:30:35.464Z,13.27
2018-10-09T23:33:04.534Z,13.23
2018-10-09T23:35:33.702Z,13.23
2018-10-09T23:38:02.997Z,13.21
2018-10-09T23:40:32.098Z,13.19
2018-10-09T23:43:02.174Z,13.17
2018-10-09T23:48:24.224Z,13.15
2018-10-09T23:50:53.402Z,13.16
2018-10-09T23:53:22.596Z,13.18
2018-10-09T23:55:51.907Z,13.19
2018-10-09T23:58:21.003Z,13.21
